This demonstration page uses our WeatherBlox Daily Observations layout. Learn more.

41.55636, -103.73856

Hourly Observations for May 1, 2017

Temp ( °F °C ) Dew Point ( °F °C ) Humidity (%) Winds ( mph kmh ) Pressure ( in mb ) Visibility ( mi km ) Precip ( " mm )
12:53 am 00:53 Clear 36 2.2 27 -2.8 70 70 WNW 8 13 29.85 1011 10 16.0934 0 0
1:53 am 01:53 Clear 35 1.7 28 -2.2 76 76 WNW 8 13 29.84 1011 10 16.0934 0 0
2:53 am 02:53 Clear 33 0.6 27 -2.8 78 78 WNW 7 11 29.84 1011 10 16.0934 0 0
3:53 am 03:53 Clear 31 -0.6 27 -2.8 85 85 NW 7 11 29.84 1010 10 16.0934 0 0
4:53 am 04:53 Clear 31 -0.6 27 -2.8 85 85 NNW 8 13 29.85 1011 10 16.0934 0 0
5:53 am 05:53 Mostly Cloudy 33 0.6 28 -2.2 82 82 NW 6 9 29.85 1011 10 16.0934 0 0
6:53 am 06:53 Mostly Cloudy 37 2.8 30 -1.1 76 76 WNW 9 15 29.86 1011 10 16.0934 0 0
7:53 am 07:53 Cloudy 42 5.6 33 0.6 71 71 W 13 20 29.88 1012 10 16.0934 0 0
8:53 am 08:53 Cloudy 46 7.8 36 2.2 68 68 WNW 10 17 29.9 1013 10 16.0934 0 0.0254
9:53 am 09:53 Cloudy 54 12.2 37 2.8 53 53 NW 23 37 29.9 1012 10 16.0934 0 0
10:53 am 10:53 Cloudy 54 12.2 37 2.8 53 53 NW 21 33 29.9 1013 10 16.0934 0 0
11:53 am 11:53 Cloudy 56 13.3 37 2.8 49 49 WNW 22 35 29.91 1013 10 16.0934 0 0
12:53 pm 12:53 Cloudy 56 13.3 36 2.2 47 47 NW 22 35 29.91 1013 10 16.0934 0 0.0254
1:53 pm 13:53 Mostly Cloudy 56 13.3 36 2.2 47 47 NW 23 37 29.92 1013 10 16.0934 0 0
2:53 pm 14:53 Cloudy 58 14.4 35 1.7 42 42 NW 21 33 29.91 1013 10 16.0934 0 0
3:53 pm 15:53 Mostly Cloudy 59 15 31 -0.6 35 35 NNW 24 39 29.91 1013 10 16.0934 0 0
4:53 pm 16:53 Cloudy 57 13.9 30 -1.1 36 36 NNW 30 48 29.93 1013 10 16.0934 0 0
5:53 pm 17:53 Sunny 57 14 25 -4 29 29 N 17 28 29.74 1007 10 16.0934 0 0
6:53 pm 18:53 Cloudy 51 10.6 34 1.1 52 52 N 17 28 29.96 1014 10 16.0934 0 0
7:53 pm 19:53 Cloudy 50 10 31 -0.6 48 48 NNW 14 22 29.98 1015 10 16.0934 0 0
8:53 pm 20:53 Cloudy 47 8.3 32 0 56 56 WNW 5 7 29.98 1015 10 16.0934 0 0
9:53 pm 21:53 Mostly Cloudy 45 7.2 33 0.6 63 63 W 3 6 29.98 1015 10 16.0934 0 0
10:53 pm 22:53 Mostly Clear 42 5.6 30 -1.1 62 62 WNW 3 6 30 1016 10 16.0934 0 0
11:53 pm 23:53 Cloudy 39 3.9 31 -0.6 73 73 W 6 9 30 1016 10 16.0934 0 0

Powered by AerisWeather